TimeEDT,TemperatureF,Dew PointF,Humidity,Sea Level PressureIn,VisibilityMPH,Wind Direction,Wind SpeedMPH,Gust SpeedMPH,PrecipitationIn,Events,Conditions,WindDirDegrees,DateUTC
12:23 AM,73.4,64.4,73,30.10,9.0,Calm,Calm,-,N/A,Thunderstorm,Scattered Clouds,0,2008-06-10 04:23:00
12:35 AM,71.6,64.4,78,30.10,9.0,SW,3.5,-,N/A,Thunderstorm,Scattered Clouds,230,2008-06-10 04:35:00
12:54 AM,73.9,64.0,71,29.99,9.0,Calm,Calm,-,N/A,,Partly Cloudy,0,2008-06-10 04:54:00
1:54 AM,71.1,63.0,75,29.98,8.0,West,3.5,-,N/A,,Clear,270,2008-06-10 05:54:00
2:54 AM,70.0,64.0,81,29.97,8.0,Calm,Calm,-,N/A,,Clear,0,2008-06-10 06:54:00
3:54 AM,69.1,64.0,84,29.96,7.0,Calm,Calm,-,N/A,,Clear,0,2008-06-10 07:54:00
4:54 AM,68.0,64.0,87,29.97,7.0,Calm,Calm,-,N/A,,Clear,0,2008-06-10 08:54:00
5:54 AM,66.0,63.0,90,29.98,7.0,Calm,Calm,-,N/A,,Clear,0,2008-06-10 09:54:00
6:54 AM,64.9,63.0,93,29.99,4.0,Calm,Calm,-,N/A,,Clear,0,2008-06-10 10:54:00
7:54 AM,69.1,64.0,84,30.01,5.0,NNW,3.5,-,N/A,,Haze,330,2008-06-10 11:54:00
8:54 AM,73.0,64.9,76,30.02,6.0,NNW,5.8,-,N/A,,Haze,330,2008-06-10 12:54:00
9:54 AM,78.1,64.9,64,30.01,7.0,NW,5.8,-,N/A,,Clear,320,2008-06-10 13:54:00
10:54 AM,84.0,63.0,49,30.00,10.0,NNW,11.5,-,N/A,,Clear,330,2008-06-10 14:54:00
11:54 AM,86.0,62.1,44,29.99,10.0,Variable,4.6,-,N/A,,Clear,0,2008-06-10 15:54:00
12:54 PM,87.1,62.1,43,29.98,10.0,Variable,4.6,-,N/A,,Clear,0,2008-06-10 16:54:00
1:54 PM,88.0,60.1,39,29.96,10.0,Variable,3.5,-,N/A,,Clear,0,2008-06-10 17:54:00
2:52 PM,87.8,62.6,43,30.03,10.0,SE,9.2,-,N/A,Thunderstorm,Thunderstorm,140,2008-06-10 18:52:00
2:54 PM,87.1,63.0,44,29.94,10.0,SE,8.1,-,N/A,Thunderstorm,Thunderstorm,140,2008-06-10 18:54:00
3:54 PM,75.0,69.1,82,29.97,6.0,North,15.0,-,0.02,Rain-Thunderstorm,Light Thunderstorms and Rain,350,2008-06-10 19:54:00
4:54 PM,71.1,68.0,90,30.01,6.0,NNW,10.4,-,0.00,Rain-Thunderstorm,Light Thunderstorms and Rain,330,2008-06-10 20:54:00
5:35 PM,69.8,64.4,83,30.08,1.8,North,10.4,-,0.03,Rain-Thunderstorm,Light Thunderstorms and Rain,360,2008-06-10 21:35:00
5:42 PM,66.2,64.4,94,30.08,1.8,NE,8.1,-,0.05,Rain,Heavy Rain,40,2008-06-10 21:42:00
5:49 PM,68.0,64.4,88,30.08,2.0,Variable,5.8,-,0.13,Rain,Light Rain,0,2008-06-10 21:49:00
5:54 PM,68.0,66.0,93,30.02,6.0,Calm,Calm,-,0.13,Rain,Light Rain,0,2008-06-10 21:54:00
5:59 PM,68.0,66.2,94,30.08,6.0,Variable,3.5,-,0.00,Rain-Thunderstorm,Light Thunderstorms and Rain,0,2008-06-10 21:59:00
6:31 PM,66.2,66.2,100,30.08,1.8,NW,8.1,-,0.05,Rain-Thunderstorm,Thunderstorms and Rain,320,2008-06-10 22:31:00
6:34 PM,66.2,66.2,100,30.08,2.0,West,5.8,-,0.06,Rain-Thunderstorm,Thunderstorms and Rain,270,2008-06-10 22:34:00
6:44 PM,68.0,66.2,94,30.08,6.0,Variable,4.6,-,0.07,Rain-Thunderstorm,Light Thunderstorms and Rain,0,2008-06-10 22:44:00
6:52 PM,69.8,66.2,88,30.08,9.0,Variable,3.5,-,0.07,Thunderstorm,Thunderstorm,0,2008-06-10 22:52:00
6:54 PM,69.1,66.9,93,30.02,8.0,WSW,5.8,-,0.07,,Scattered Clouds,250,2008-06-10 22:54:00
7:54 PM,71.1,66.9,87,30.00,10.0,NNW,4.6,-,N/A,,Clear,340,2008-06-10 23:54:00
8:54 PM,68.0,66.9,96,30.01,8.0,NW,5.8,-,N/A,,Clear,310,2008-06-11 00:54:00
9:54 PM,68.0,66.0,93,30.02,8.0,NW,5.8,-,N/A,,Clear,320,2008-06-11 01:54:00
10:54 PM,66.9,66.0,97,30.02,6.0,NNW,5.8,-,N/A,,Clear,330,2008-06-11 02:54:00
11:54 PM,66.0,64.9,96,30.03,6.0,NNW,3.5,-,N/A,,Clear,330,2008-06-11 03:54:00